Time;durP1;ratioP1;P1;durP2;ratioP2;P2;SDS_P1;SDS_P2;PMS_P1;PMS_P2;Temp;Humidity;BMP_temperature;BMP_pressure;BME280_temperature;BME280_humidity;BME280_pressure;Samples;Min_cycle;Max_cycle;Signal;HPM_P1;HPM_P2
2022/12/13 00:00:46;;;;;;;14.20;8.50;;;;;;;-1.64;85.00;99490.92;102711;1333;175136;-76
2022/12/13 00:03:29;;;;;;;12.10;8.60;;;;;;;-1.64;84.91;99494.18;102923;1329;37412;-74
2022/12/13 00:06:06;;;;;;;12.60;8.60;;;;;;;-1.64;84.94;99498.27;102839;1329;37554;-72
2022/12/13 00:08:41;;;;;;;12.00;9.60;;;;;;;-1.63;84.83;99499.48;102856;1333;38223;-75
2022/12/13 00:11:16;;;;;;;12.40;9.50;;;;;;;-1.65;85.06;99502.56;102978;1331;37320;-73
2022/12/13 00:13:50;;;;;;;10.20;8.30;;;;;;;-1.66;85.41;99504.11;102947;1329;36883;-76
2022/12/13 00:16:25;;;;;;;10.80;8.10;;;;;;;-1.67;85.15;99507.35;102932;1331;37145;-75
2022/12/13 00:19:01;;;;;;;12.00;8.40;;;;;;;-1.66;85.29;99512.30;102906;1329;37476;-76
2022/12/13 00:21:36;;;;;;;11.00;8.20;;;;;;;-1.67;85.21;99513.67;102928;1329;37258;-75
2022/12/13 00:24:11;;;;;;;12.00;8.20;;;;;;;-1.67;85.23;99513.33;102934;1330;38369;-74
2022/12/13 00:26:45;;;;;;;11.00;8.30;;;;;;;-1.67;85.11;99515.21;102889;1331;37449;-73
2022/12/13 00:29:20;;;;;;;10.20;7.50;;;;;;;-1.71;84.89;99517.62;102820;1333;37401;-73
2022/12/13 00:31:54;;;;;;;9.30;7.10;;;;;;;-1.77;84.75;99524.64;102806;1327;175169;-74
2022/12/13 00:34:28;;;;;;;7.80;6.50;;;;;;;-1.80;85.17;99520.38;102924;1331;37141;-75
2022/12/13 00:37:03;;;;;;;10.40;7.00;;;;;;;-1.81;85.10;99527.39;102898;1329;37312;-75
2022/12/13 00:39:37;;;;;;;10.40;7.80;;;;;;;-1.79;85.10;99530.98;102920;1329;36758;-76
2022/12/13 00:42:13;;;;;;;10.60;7.30;;;;;;;-1.75;85.37;99533.88;102910;1329;37316;-74
2022/12/13 00:44:47;;;;;;;9.00;7.20;;;;;;;-1.70;85.49;99539.85;102931;1332;36163;-76
2022/12/13 00:47:21;;;;;;;9.20;6.70;;;;;;;-1.66;85.51;99537.63;102932;1329;36876;-76
2022/12/13 00:49:55;;;;;;;10.00;7.20;;;;;;;-1.63;85.30;99541.02;102951;1331;36752;-74
2022/12/13 00:52:29;;;;;;;10.80;7.30;;;;;;;-1.60;85.41;99538.97;102883;1329;37149;-77
2022/12/13 00:55:04;;;;;;;15.40;9.30;;;;;;;-1.57;85.40;99539.14;102915;1329;37271;-73
2022/12/13 00:57:38;;;;;;;10.10;7.60;;;;;;;-1.55;85.24;99536.90;102783;1332;37170;-76
2022/12/13 01:00:14;;;;;;;8.80;6.70;;;;;;;-1.50;85.41;99542.54;102841;1333;37151;-76
2022/12/13 01:02:49;;;;;;;7.70;6.50;;;;;;;-1.50;85.07;99544.59;102854;1329;175179;-75
2022/12/13 01:05:23;;;;;;;10.60;6.90;;;;;;;-1.52;85.04;99547.49;102922;1330;38366;-74
2022/12/13 01:07:57;;;;;;;10.40;6.90;;;;;;;-1.52;85.12;99548.54;102824;1329;37940;-76
2022/12/13 01:10:34;;;;;;;10.40;6.70;;;;;;;-1.56;84.81;99550.59;102802;1329;37271;-74
2022/12/13 01:13:08;;;;;;;9.60;7.30;;;;;;;-1.59;84.83;99553.68;102883;1329;37153;-75
2022/12/13 01:15:45;;;;;;;9.70;6.90;;;;;;;-1.61;84.81;99558.30;102892;1328;37567;-76
2022/12/13 01:18:19;;;;;;;9.50;6.20;;;;;;;-1.61;84.81;99560.19;102902;1329;36740;-75
2022/12/13 01:21:03;;;;;;;7.20;5.80;;;;;;;-1.60;84.94;99557.60;102906;1331;36247;-76
2022/12/13 01:23:38;;;;;;;11.10;6.10;;;;;;;-1.57;84.89;99558.83;102579;1329;495668;-72
2022/12/13 01:26:13;;;;;;;7.90;6.20;;;;;;;-1.57;84.72;99560.86;102785;1331;173005;-74
2022/12/13 01:28:47;;;;;;;7.50;6.50;;;;;;;-1.56;85.14;99564.10;102904;1332;37182;-74
2022/12/13 01:31:21;;;;;;;8.00;5.80;;;;;;;-1.55;84.89;99563.76;102964;1322;37215;-74
2022/12/13 01:33:56;;;;;;;8.50;6.00;;;;;;;-1.56;84.79;99560.52;102864;1330;37205;-73
2022/12/13 01:36:30;;;;;;;8.10;5.70;;;;;;;-1.57;84.72;99562.73;102915;1329;37339;-73
2022/12/13 01:39:04;;;;;;;9.80;6.10;;;;;;;-1.53;85.00;99564.77;102942;1327;37229;-75
2022/12/13 01:41:37;;;;;;;8.20;6.40;;;;;;;-1.50;85.27;99563.75;102848;1333;37367;-73
2022/12/13 01:44:59;;;;;;;9.90;6.60;;;;;;;-1.46;85.00;99568.71;102946;1331;37679;-77
2022/12/13 01:47:36;;;;;;;7.30;6.10;;;;;;;-1.47;85.18;99568.20;102968;1331;37404;-75
2022/12/13 01:50:15;;;;;;;7.20;5.70;;;;;;;-1.43;85.17;99568.19;103019;1331;37188;-75
2022/12/13 01:52:49;;;;;;;8.20;5.90;;;;;;;-1.38;85.15;99572.77;102855;1333;37458;-75
2022/12/13 01:55:24;;;;;;;6.90;6.20;;;;;;;-1.33;85.18;99575.17;102907;1331;36281;-74
2022/12/13 01:57:59;;;;;;;8.80;6.40;;;;;;;-1.28;85.04;99576.19;102915;1328;37221;-74
2022/12/13 02:00:34;;;;;;;9.10;6.70;;;;;;;-1.27;84.97;99572.25;102897;1331;37194;-76
2022/12/13 02:03:08;;;;;;;8.50;6.90;;;;;;;-1.27;84.81;99570.20;102878;1327;37218;-74
2022/12/13 02:05:44;;;;;;;9.20;6.40;;;;;;;-1.27;84.90;99571.73;102812;1333;36673;-75
2022/12/13 02:08:18;;;;;;;9.00;6.40;;;;;;;-1.27;84.63;99572.42;102858;1333;37485;-75
2022/12/13 02:10:52;;;;;;;9.80;7.60;;;;;;;-1.23;84.75;99570.69;102840;1329;37234;-76
2022/12/13 02:13:26;;;;;;;9.60;7.00;;;;;;;-1.19;84.64;99572.89;102947;1331;36277;-74
2022/12/13 02:16:04;;;;;;;8.90;7.50;;;;;;;-1.16;84.88;99574.95;102914;1331;37267;-74
2022/12/13 02:18:52;;;;;;;10.70;7.60;;;;;;;-1.15;84.81;99574.77;102937;1329;37247;-75
2022/12/13 02:21:34;;;;;;;9.60;6.70;;;;;;;-1.15;84.49;99573.58;102966;1331;37472;-76
2022/12/13 02:24:43;;;;;;;9.20;7.10;;;;;;;-1.15;84.38;99573.40;102920;1331;36407;-76
2022/12/13 02:27:49;;;;;;;9.00;6.90;;;;;;;-1.10;84.57;99570.48;102913;1329;37252;-75
2022/12/13 02:30:28;;;;;;;12.90;8.30;;;;;;;-1.06;84.68;99567.89;102938;1333;36399;-76
2022/12/13 02:33:21;;;;;;;9.30;6.90;;;;;;;-1.04;84.32;99567.21;102940;1331;37220;-76
2022/12/13 02:36:03;;;;;;;10.50;7.50;;;;;;;-1.07;84.34;99565.15;102927;1316;37211;-75
2022/12/13 02:38:43;;;;;;;9.30;6.80;;;;;;;-1.09;84.36;99563.80;102915;1331;37215;-74
2022/12/13 02:41:22;;;;;;;10.70;7.20;;;;;;;-1.08;84.22;99568.94;102898;1329;37118;-76
2022/12/13 02:44:00;;;;;;;9.40;7.20;;;;;;;-1.08;84.16;99577.66;102948;1331;37159;-71
2022/12/13 02:46:37;;;;;;;9.70;6.90;;;;;;;-1.08;84.10;99577.14;102945;1329;37206;-72
2022/12/13 02:49:11;;;;;;;9.10;6.90;;;;;;;-1.07;84.37;99579.70;102940;1329;36985;-74
2022/12/13 02:51:45;;;;;;;8.80;6.90;;;;;;;-1.06;84.20;99582.95;102885;1331;37514;-74
2022/12/13 02:54:19;;;;;;;7.70;6.30;;;;;;;-1.06;84.22;99579.52;102920;1331;36430;-74
2022/12/13 02:56:58;;;;;;;10.70;7.00;;;;;;;-1.03;84.47;99585.34;102789;1329;36425;-74
2022/12/13 02:59:34;;;;;;;11.50;7.60;;;;;;;-0.98;84.52;99588.23;102937;1331;37147;-73
2022/12/13 03:02:15;;;;;;;9.30;6.90;;;;;;;-0.94;84.38;99582.55;102802;1329;175136;-76
2022/12/13 03:07:55;;;;;;;9.60;6.90;;;;;;;-0.93;84.05;99586.14;102897;1331;37227;-75
2022/12/13 03:10:33;;;;;;;9.10;6.60;;;;;;;-0.93;84.13;99587.52;102921;1328;37861;-71
2022/12/13 03:16:03;;;;;;;7.40;6.10;;;;;;;-0.89;84.15;99587.16;102838;1329;37136;-74
2022/12/13 03:18:37;;;;;;;9.50;7.00;;;;;;;-0.88;84.34;99592.30;102974;1328;37346;-75
2022/12/13 03:21:12;;;;;;;11.60;7.60;;;;;;;-0.87;84.15;99590.92;102873;1332;37095;-75
2022/12/13 03:23:48;;;;;;;8.60;6.70;;;;;;;-0.83;84.60;99592.98;102956;1327;38323;-74
2022/12/13 03:26:27;;;;;;;7.90;6.20;;;;;;;-0.79;84.57;99591.58;102834;1331;36873;-72
2022/12/13 03:29:01;;;;;;;7.70;6.70;;;;;;;-0.74;84.37;99585.73;102830;1329;37250;-74
2022/12/13 03:31:36;;;;;;;7.80;6.60;;;;;;;-0.70;84.31;99587.92;102931;1328;37190;-76
2022/12/13 03:34:10;;;;;;;9.30;7.10;;;;;;;-0.70;84.26;99584.67;102950;1329;36131;-75
2022/12/13 03:36:44;;;;;;;8.80;7.20;;;;;;;-0.73;83.75;99585.05;102824;1333;37358;-75
2022/12/13 03:39:18;;;;;;;9.00;6.80;;;;;;;-0.73;84.10;99586.42;102910;1331;37426;-74
2022/12/13 03:41:52;;;;;;;7.80;6.70;;;;;;;-0.74;83.82;99583.16;102873;1331;37241;-74
2022/12/13 03:44:26;;;;;;;9.10;7.20;;;;;;;-0.76;83.80;99581.96;102977;1331;36330;-73
2022/12/13 03:47:00;;;;;;;9.80;7.30;;;;;;;-0.72;83.99;99582.82;102965;1332;37459;-73
2022/12/13 03:49:35;;;;;;;10.20;8.50;;;;;;;-0.71;83.96;99583.48;102952;1331;37950;-76
2022/12/13 03:52:08;;;;;;;11.90;8.40;;;;;;;-0.72;83.84;99584.87;102893;1331;36318;-73
2022/12/13 03:54:42;;;;;;;11.30;7.80;;;;;;;-0.72;83.80;99587.08;102930;1333;37121;-75
2022/12/13 03:57:16;;;;;;;9.50;7.60;;;;;;;-0.71;83.86;99586.06;102908;1331;37326;-76
2022/12/13 03:59:50;;;;;;;10.90;8.10;;;;;;;-0.72;83.77;99587.43;102936;1328;37240;-76
2022/12/13 04:02:24;;;;;;;10.20;8.30;;;;;;;-0.70;83.88;99586.38;102829;1329;37280;-77
2022/12/13 04:04:58;;;;;;;11.80;8.90;;;;;;;-0.69;83.95;99590.67;102929;1328;37110;-73
2022/12/13 04:07:32;;;;;;;10.00;8.60;;;;;;;-0.69;83.72;99591.87;102907;1328;37464;-76
2022/12/13 04:10:07;;;;;;;11.00;8.80;;;;;;;-0.72;83.74;99594.28;102911;1333;37220;-75
2022/12/13 04:15:32;;;;;;;13.90;8.90;;;;;;;-0.74;83.57;99598.23;102905;1330;37504;-72
2022/12/13 04:18:07;;;;;;;10.00;8.00;;;;;;;-0.74;83.69;99600.62;102952;1331;37638;-74
2022/12/13 04:20:41;;;;;;;12.40;9.00;;;;;;;-0.71;83.86;99601.98;102823;1331;38798;-74
2022/12/13 04:23:16;;;;;;;14.00;10.60;;;;;;;-0.71;83.77;99603.18;102905;1327;37138;-76
2022/12/13 04:25:50;;;;;;;12.50;9.60;;;;;;;-0.73;83.58;99600.98;102922;1329;37247;-77
2022/12/13 04:28:24;;;;;;;11.90;9.80;;;;;;;-0.71;83.98;99602.66;102935;1331;37144;-75
2022/12/13 04:30:58;;;;;;;12.10;8.80;;;;;;;-0.71;83.81;99602.32;102951;1331;37436;-76
2022/12/13 04:33:32;;;;;;;12.30;9.40;;;;;;;-0.70;83.68;99609.00;102925;1329;37592;-76
2022/12/13 04:36:07;;;;;;;12.20;9.70;;;;;;;-0.67;83.91;99607.10;102900;1331;37340;-74
2022/12/13 04:38:41;;;;;;;11.50;9.90;;;;;;;-0.66;83.77;99610.70;102955;1331;36142;-74
2022/12/13 04:41:18;;;;;;;12.90;10.10;;;;;;;-0.65;83.88;99612.40;102873;1329;37144;-75
2022/12/13 04:43:55;;;;;;;12.30;9.90;;;;;;;-0.65;83.80;99614.11;102914;1332;36772;-73
2022/12/13 04:46:30;;;;;;;13.90;9.70;;;;;;;-0.66;83.69;99617.71;102898;1330;37297;-74
2022/12/13 04:49:04;;;;;;;12.00;9.30;;;;;;;-0.65;83.87;99623.18;102807;1332;37351;-74
2022/12/13 04:51:38;;;;;;;9.30;8.20;;;;;;;-0.64;83.67;99623.02;102790;1333;37137;-74
2022/12/13 04:54:12;;;;;;;9.70;8.70;;;;;;;-0.64;83.76;99625.24;102819;1332;37305;-75
2022/12/13 04:56:46;;;;;;;12.60;9.00;;;;;;;-0.64;83.49;99627.81;102901;1327;37143;-75
2022/12/13 04:59:20;;;;;;;12.20;10.00;;;;;;;-0.66;83.44;99632.45;102965;1331;37244;-74
2022/12/13 05:01:54;;;;;;;12.00;9.50;;;;;;;-0.73;82.88;99630.60;102867;1331;37219;-76
2022/12/13 05:04:28;;;;;;;13.40;8.90;;;;;;;-0.81;82.93;99631.48;102956;1327;36880;-76
2022/12/13 05:07:02;;;;;;;9.50;7.60;;;;;;;-0.91;82.68;99636.31;102932;1330;36928;-76
2022/12/13 05:09:36;;;;;;;10.50;8.30;;;;;;;-1.01;82.50;99639.43;102910;1331;37222;-77
2022/12/13 05:12:10;;;;;;;12.00;9.60;;;;;;;-1.10;82.67;99642.02;102852;1329;175155;-76
2022/12/13 05:14:44;;;;;;;10.30;9.20;;;;;;;-1.14;82.97;99641.52;102960;1329;38358;-73
2022/12/13 05:17:18;;;;;;;12.10;9.10;;;;;;;-1.15;83.07;99640.33;102922;1332;37188;-71
2022/12/13 05:19:51;;;;;;;10.30;8.10;;;;;;;-1.17;83.13;99642.73;102914;1329;37381;-74
2022/12/13 05:22:25;;;;;;;9.90;8.20;;;;;;;-1.14;83.02;99643.23;102937;1331;36253;-76
2022/12/13 05:25:00;;;;;;;9.50;8.30;;;;;;;-1.15;83.16;99648.36;102808;1333;37230;-76
2022/12/13 05:27:34;;;;;;;11.90;9.10;;;;;;;-1.13;83.41;99648.86;102882;1333;37393;-74
2022/12/13 05:30:12;;;;;;;11.80;9.80;;;;;;;-1.10;83.31;99653.48;102916;1329;37583;-75
2022/12/13 05:32:47;;;;;;;12.70;9.10;;;;;;;-1.09;83.27;99655.36;102843;1329;37168;-75
2022/12/13 05:35:21;;;;;;;12.50;9.20;;;;;;;-1.10;83.21;99658.10;102942;1329;37562;-76
2022/12/13 05:37:55;;;;;;;9.40;7.90;;;;;;;-1.10;83.13;99665.98;102935;1329;37228;-75
2022/12/13 05:40:31;;;;;;;10.30;7.90;;;;;;;-1.10;82.95;99665.46;102894;1328;36818;-74
2022/12/13 05:43:05;;;;;;;11.40;8.60;;;;;;;-1.08;82.84;99664.44;102948;1331;37123;-74
2022/12/13 05:45:39;;;;;;;10.70;8.80;;;;;;;-1.05;83.26;99669.21;102901;1331;37199;-75
2022/12/13 05:48:13;;;;;;;12.10;9.60;;;;;;;-1.04;83.34;99670.08;102919;1331;37123;-74
2022/12/13 05:50:47;;;;;;;9.90;8.50;;;;;;;-1.02;83.25;99676.41;102845;1333;37519;-75
2022/12/13 05:53:21;;;;;;;10.90;8.30;;;;;;;-1.02;83.01;99679.48;102807;1329;37516;-75
2022/12/13 05:55:55;;;;;;;10.30;7.80;;;;;;;-1.03;82.88;99679.14;102908;1329;38368;-76
2022/12/13 05:58:29;;;;;;;10.60;8.50;;;;;;;-1.01;82.91;99681.36;102914;1330;37588;-74
2022/12/13 06:01:10;;;;;;;12.50;9.10;;;;;;;-0.99;82.89;99686.66;102949;1328;37154;-74
2022/12/13 06:03:44;;;;;;;12.30;9.40;;;;;;;-0.96;82.74;99688.37;102911;1327;38641;-75
2022/12/13 06:06:18;;;;;;;12.30;9.20;;;;;;;-1.00;82.55;99688.73;102916;1329;37240;-75
2022/12/13 06:08:52;;;;;;;11.90;9.00;;;;;;;-1.02;82.54;99692.50;102260;1328;912632;-73
2022/12/13 06:11:27;;;;;;;10.70;8.50;;;;;;;-1.03;82.56;99693.02;102889;1331;37343;-74
2022/12/13 06:14:01;;;;;;;13.60;9.00;;;;;;;-1.02;82.53;99692.16;102863;1333;36325;-75
2022/12/13 06:16:35;;;;;;;15.10;9.80;;;;;;;-1.01;82.47;99700.02;102886;1329;37540;-76
2022/12/13 06:19:09;;;;;;;11.40;9.30;;;;;;;-1.03;82.34;99699.00;102913;1329;37234;-73
2022/12/13 06:21:43;;;;;;;10.10;8.40;;;;;;;-1.07;82.17;99707.05;102919;1327;37277;-72
2022/12/13 06:24:19;;;;;;;11.30;8.10;;;;;;;-1.09;82.20;99710.48;102913;1328;36669;-75
2022/12/13 06:26:53;;;;;;;10.40;7.60;;;;;;;-1.12;82.11;99714.92;102869;1329;37131;-76
2022/12/13 06:29:27;;;;;;;10.70;7.90;;;;;;;-1.14;81.88;99719.21;102935;1330;37258;-75
2022/12/13 06:32:02;;;;;;;10.80;8.20;;;;;;;-1.16;81.87;99721.96;102923;1329;37205;-75
2022/12/13 06:34:37;;;;;;;11.80;8.00;;;;;;;-1.17;81.84;99721.27;102909;1329;37267;-72
2022/12/13 06:37:13;;;;;;;8.80;6.90;;;;;;;-1.21;81.88;99731.54;102907;1330;36247;-72
2022/12/13 06:39:46;;;;;;;11.20;8.30;;;;;;;-1.23;81.74;99731.72;102919;1330;37383;-74
2022/12/13 06:42:20;;;;;;;20.20;10.20;;;;;;;-1.26;81.46;99729.49;102967;1331;37514;-74
2022/12/13 06:44:54;;;;;;;11.40;7.70;;;;;;;-1.26;81.62;99736.52;102942;1332;38368;-74
2022/12/13 06:47:29;;;;;;;10.40;8.30;;;;;;;-1.27;81.38;99738.57;102915;1327;36289;-76
2022/12/13 06:50:04;;;;;;;12.20;8.60;;;;;;;-1.29;81.42;99741.65;102979;1329;37621;-75
2022/12/13 06:52:38;;;;;;;12.10;9.40;;;;;;;-1.30;81.22;99749.17;102885;1331;37163;-74
2022/12/13 06:55:13;;;;;;;11.00;7.70;;;;;;;-1.34;81.15;99747.80;102890;1329;37157;-74
2022/12/13 06:57:48;;;;;;;9.70;7.80;;;;;;;-1.35;81.23;99750.71;102910;1331;36213;-73
2022/12/13 07:00:22;;;;;;;11.00;8.50;;;;;;;-1.33;81.18;99753.61;102885;1329;37150;-75
2022/12/13 07:02:59;;;;;;;12.50;8.90;;;;;;;-1.33;81.36;99762.02;102920;1331;38033;-74
2022/12/13 07:05:33;;;;;;;12.00;8.40;;;;;;;-1.32;81.08;99763.55;102812;1332;36747;-73
2022/12/13 07:08:11;;;;;;;12.90;8.60;;;;;;;-1.34;81.21;99765.93;102916;1331;36428;-73
2022/12/13 07:10:46;;;;;;;10.10;7.30;;;;;;;-1.34;81.19;99772.10;102805;1331;172615;-74
2022/12/13 07:13:25;;;;;;;7.00;5.90;;;;;;;-1.34;80.99;99770.89;102940;1329;37340;-73
2022/12/13 07:16:00;;;;;;;8.50;6.60;;;;;;;-1.32;80.77;99781.17;103008;1331;37118;-73
2022/12/13 07:18:35;;;;;;;10.20;7.20;;;;;;;-1.35;80.38;99782.88;102987;1329;36585;-73
2022/12/13 07:21:11;;;;;;;12.10;8.40;;;;;;;-1.38;80.48;99784.92;102933;1331;36910;-72
2022/12/13 07:23:45;;;;;;;7.50;6.40;;;;;;;-1.37;80.85;99787.16;102895;1329;37147;-76
2022/12/13 07:26:19;;;;;;;9.60;7.10;;;;;;;-1.36;80.31;99791.77;102925;1331;37213;-75
2022/12/13 07:28:53;;;;;;;9.60;7.50;;;;;;;-1.37;80.49;99795.20;102941;1328;37203;-74
2022/12/13 07:31:28;;;;;;;9.60;7.70;;;;;;;-1.34;80.61;99796.39;102888;1329;37147;-73
2022/12/13 07:34:02;;;;;;;10.60;8.20;;;;;;;-1.33;80.41;99799.13;102912;1328;37225;-74
2022/12/13 07:36:36;;;;;;;14.60;9.70;;;;;;;-1.31;80.39;99803.25;102825;1332;37174;-73
2022/12/13 07:39:10;;;;;;;10.10;8.10;;;;;;;-1.32;80.38;99807.70;102874;1331;37131;-73
2022/12/13 07:41:45;;;;;;;11.90;8.30;;;;;;;-1.32;80.23;99810.08;102922;1331;37241;-76
2022/12/13 07:44:20;;;;;;;11.00;8.60;;;;;;;-1.34;80.18;99814.53;102819;1329;172582;-75
2022/12/13 07:46:54;;;;;;;10.90;7.80;;;;;;;-1.31;80.17;99815.05;102909;1331;37834;-75
2022/12/13 07:49:28;;;;;;;9.70;7.80;;;;;;;-1.26;80.32;99822.76;102849;1329;37115;-77
2022/12/13 07:52:03;;;;;;;10.90;8.60;;;;;;;-1.25;80.26;99827.71;102891;1327;37452;-76
2022/12/13 07:54:38;;;;;;;11.10;8.90;;;;;;;-1.25;80.17;99825.16;102929;1331;37276;-75
2022/12/13 07:57:13;;;;;;;9.40;7.70;;;;;;;-1.25;80.31;99827.88;102813;1329;175174;-75
2022/12/13 07:59:46;;;;;;;8.00;6.80;;;;;;;-1.24;79.88;99825.83;102989;1329;37515;-73
2022/12/13 08:02:21;;;;;;;9.20;7.80;;;;;;;-1.22;79.71;99831.31;102966;1329;37304;-75
2022/12/13 08:04:57;;;;;;;9.00;7.30;;;;;;;-1.21;79.61;99833.03;102953;1331;39058;-73
2022/12/13 08:07:31;;;;;;;10.10;8.40;;;;;;;-1.23;78.98;99832.34;102959;1329;37754;-73
2022/12/13 08:10:08;;;;;;;10.20;8.00;;;;;;;-1.25;79.43;99837.30;102924;1327;37298;-73
2022/12/13 08:12:46;;;;;;;10.20;7.50;;;;;;;-1.25;79.70;99839.00;102935;1331;37243;-73
2022/12/13 08:15:20;;;;;;;9.30;8.10;;;;;;;-1.21;79.59;99837.48;102886;1331;37214;-76
2022/12/13 08:18:00;;;;;;;10.20;8.10;;;;;;;-1.16;79.95;99837.99;102917;1331;37903;-76
2022/12/13 08:20:34;;;;;;;10.40;8.30;;;;;;;-1.09;79.81;99843.81;102904;1331;37021;-75
2022/12/13 08:23:08;;;;;;;10.60;8.70;;;;;;;-1.07;79.23;99849.98;102830;1333;36100;-75
2022/12/13 08:25:43;;;;;;;12.90;9.40;;;;;;;-1.10;79.17;99851.19;102876;1328;37137;-74
2022/12/13 08:28:17;;;;;;;13.10;10.00;;;;;;;-1.09;79.24;99853.06;102827;1333;36669;-72
2022/12/13 08:30:52;;;;;;;10.30;8.70;;;;;;;-1.07;79.20;99860.43;102809;1331;37326;-75
2022/12/13 08:33:27;;;;;;;10.10;8.70;;;;;;;-1.04;79.28;99857.00;102815;1325;37381;-75
2022/12/13 08:36:08;;;;;;;10.50;8.90;;;;;;;-0.99;79.33;99855.80;102904;1331;36935;-74
2022/12/13 08:38:42;;;;;;;10.80;9.10;;;;;;;-0.98;79.16;99857.70;102922;1333;37169;-73
2022/12/13 08:41:17;;;;;;;12.10;9.00;;;;;;;-0.99;79.09;99862.66;102920;1329;37207;-72
2022/12/13 08:43:51;;;;;;;15.70;10.40;;;;;;;-0.98;78.92;99863.86;102912;1329;36153;-74
2022/12/13 08:46:25;;;;;;;10.30;8.20;;;;;;;-0.97;78.59;99863.86;102894;1329;37275;-73
2022/12/13 08:48:59;;;;;;;11.20;8.50;;;;;;;-0.94;79.03;99866.41;102904;1328;36542;-75
2022/12/13 08:51:33;;;;;;;10.10;8.30;;;;;;;-0.90;78.78;99869.67;102895;1332;38793;-74
2022/12/13 08:54:08;;;;;;;12.20;9.10;;;;;;;-0.89;78.63;99867.96;102898;1329;36617;-76
2022/12/13 08:56:43;;;;;;;11.80;9.40;;;;;;;-0.91;78.22;99867.11;102935;1318;37483;-76
2022/12/13 08:59:18;;;;;;;12.60;8.70;;;;;;;-0.94;78.11;99871.90;102930;1329;36232;-74
2022/12/13 09:01:52;;;;;;;11.70;7.80;;;;;;;-0.94;77.77;99870.88;102816;1333;37790;-74
2022/12/13 09:04:26;;;;;;;10.70;8.30;;;;;;;-0.93;77.28;99877.90;102864;1329;37486;-76
2022/12/13 09:07:00;;;;;;;10.60;8.40;;;;;;;-0.94;77.61;99881.49;102921;1332;37259;-74
2022/12/13 09:09:34;;;;;;;13.20;10.20;;;;;;;-0.94;77.83;99884.05;102912;1327;38388;-76
2022/12/13 09:12:09;;;;;;;11.90;9.10;;;;;;;-0.94;77.17;99888.52;102893;1331;37391;-74
2022/12/13 09:14:43;;;;;;;11.70;8.40;;;;;;;-0.98;77.41;99889.36;102915;1331;36188;-73
2022/12/13 09:17:17;;;;;;;12.70;8.90;;;;;;;-1.00;77.24;99891.77;102944;1327;37135;-71
2022/12/13 09:19:51;;;;;;;12.40;9.20;;;;;;;-0.97;77.47;99894.00;102947;1331;37247;-74
2022/12/13 09:22:25;;;;;;;10.50;8.50;;;;;;;-0.97;77.33;99895.19;102923;1331;37399;-76
2022/12/13 09:24:59;;;;;;;10.40;8.10;;;;;;;-0.95;77.53;99891.93;102737;1329;279756;-75
2022/12/13 09:27:33;;;;;;;10.30;8.70;;;;;;;-0.86;77.23;99889.02;102927;1329;37491;-74
2022/12/13 09:30:12;;;;;;;10.30;8.40;;;;;;;-0.83;76.72;99890.58;102944;1329;37884;-74
2022/12/13 09:32:49;;;;;;;11.20;8.40;;;;;;;-0.79;77.18;99889.55;102787;1333;37232;-75
2022/12/13 09:35:23;;;;;;;10.40;8.50;;;;;;;-0.72;77.13;99892.30;102915;1328;37523;-76
2022/12/13 09:37:58;;;;;;;10.80;7.80;;;;;;;-0.66;76.84;99895.54;102926;1329;37212;-73
2022/12/13 09:40:32;;;;;;;11.90;8.50;;;;;;;-0.63;76.34;99893.84;102918;1331;37245;-71
2022/12/13 09:43:07;;;;;;;12.60;9.40;;;;;;;-0.62;76.46;99897.60;102940;1329;37218;-75
2022/12/13 09:45:41;;;;;;;9.80;8.80;;;;;;;-0.61;76.36;99895.54;102930;1331;37634;-75
2022/12/13 09:48:17;;;;;;;12.30;9.10;;;;;;;-0.60;76.40;99901.36;102943;1333;36247;-73
2022/12/13 09:50:52;;;;;;;10.10;8.30;;;;;;;-0.55;76.37;99902.90;102899;1329;37280;-75
2022/12/13 09:53:25;;;;;;;11.40;8.60;;;;;;;-0.49;76.07;99898.95;102927;1328;37131;-75
2022/12/13 09:55:59;;;;;;;10.00;8.10;;;;;;;-0.43;76.42;99897.92;102889;1328;37230;-76
2022/12/13 09:58:36;;;;;;;28.60;14.10;;;;;;;-0.40;76.23;99897.42;102915;1329;37182;-74
2022/12/13 10:01:11;;;;;;;17.70;10.10;;;;;;;-0.37;76.15;99903.58;102920;1331;36799;-73
2022/12/13 10:03:48;;;;;;;14.60;9.70;;;;;;;-0.35;76.21;99902.88;102897;1329;37357;-77
2022/12/13 10:06:23;;;;;;;10.10;7.70;;;;;;;-0.36;75.50;99903.23;102934;1329;37427;-77
2022/12/13 10:08:58;;;;;;;11.60;8.10;;;;;;;-0.39;75.48;99905.12;102827;1329;36287;-72
2022/12/13 10:11:32;;;;;;;9.80;7.70;;;;;;;-0.46;75.41;99908.90;102788;1331;38019;-74
2022/12/13 10:14:09;;;;;;;13.90;9.40;;;;;;;-0.55;75.63;99907.02;102786;1329;37052;-73
2022/12/13 10:16:47;;;;;;;10.40;8.50;;;;;;;-0.61;75.70;99908.73;102831;1329;36574;-73
2022/12/13 10:19:24;;;;;;;15.70;9.20;;;;;;;-0.68;75.80;99910.61;102937;1314;37233;-76
2022/12/13 10:21:58;;;;;;;10.10;7.90;;;;;;;-0.69;76.41;99909.92;102958;1328;37332;-74
2022/12/13 10:24:49;;;;;;;10.80;8.60;;;;;;;-0.72;76.03;99910.10;102912;1330;37232;-73
2022/12/13 10:27:28;;;;;;;10.50;8.40;;;;;;;-0.70;76.31;99913.52;102918;1331;37141;-74
2022/12/13 10:30:05;;;;;;;12.50;9.20;;;;;;;-0.68;76.27;99914.73;102921;1328;38351;-71
2022/12/13 10:32:50;;;;;;;10.40;8.70;;;;;;;-0.61;76.57;99911.64;102943;1329;37266;-71
2022/12/13 10:35:31;;;;;;;9.70;7.80;;;;;;;-0.50;76.70;99911.63;102910;1331;37304;-76
2022/12/13 10:38:23;;;;;;;11.30;8.20;;;;;;;-0.48;76.25;99914.04;102946;1329;37361;-75
2022/12/13 10:40:57;;;;;;;12.40;9.50;;;;;;;-0.48;76.47;99913.52;102908;1329;37791;-76
2022/12/13 10:43:34;;;;;;;12.10;8.90;;;;;;;-0.49;76.21;99917.13;102924;1331;36119;-75
2022/12/13 10:46:18;;;;;;;10.70;7.90;;;;;;;-0.49;76.53;99915.23;102875;1331;37244;-76
2022/12/13 10:48:54;;;;;;;10.20;8.00;;;;;;;-0.45;76.36;99912.84;102935;1327;37392;-75
2022/12/13 10:51:31;;;;;;;10.70;8.10;;;;;;;-0.34;76.86;99909.23;102891;1329;37139;-75
2022/12/13 10:54:06;;;;;;;11.80;8.30;;;;;;;-0.17;76.58;99908.00;102838;1329;37211;-73
2022/12/13 10:56:45;;;;;;;10.90;8.30;;;;;;;-0.05;76.24;99905.58;102824;1333;37549;-73
2022/12/13 10:59:33;;;;;;;10.80;8.80;;;;;;;0.04;76.07;99899.55;102923;1330;37132;-75
2022/12/13 11:02:30;;;;;;;12.40;9.20;;;;;;;0.13;76.19;99902.42;102933;1329;36477;-74
2022/12/13 11:05:27;;;;;;;11.60;9.10;;;;;;;0.14;75.33;99898.66;102898;1329;37240;-74
2022/12/13 11:08:13;;;;;;;9.20;7.70;;;;;;;0.08;75.16;99902.29;102932;1328;37279;-73
2022/12/13 11:10:47;;;;;;;10.90;8.70;;;;;;;0.02;74.70;99903.34;102890;1329;37239;-74
2022/12/13 11:13:37;;;;;;;11.50;9.40;;;;;;;-0.11;74.39;99898.21;102936;1329;37207;-73
2022/12/13 11:16:32;;;;;;;12.50;9.60;;;;;;;-0.32;74.20;99900.82;102900;1327;36319;-71
2022/12/13 11:19:16;;;;;;;12.30;9.30;;;;;;;-0.50;74.42;99900.67;102817;1333;37283;-73
2022/12/13 11:21:53;;;;;;;10.20;8.90;;;;;;;-0.60;74.66;99899.98;102913;1331;37644;-74
2022/12/13 11:24:28;;;;;;;9.90;7.70;;;;;;;-0.57;75.26;99902.39;102952;1331;37409;-73
2022/12/13 11:27:05;;;;;;;13.20;9.50;;;;;;;-0.53;75.30;99899.31;102808;1330;37465;-74
2022/12/13 11:29:51;;;;;;;11.00;9.20;;;;;;;-0.50;75.17;99899.30;102793;1331;174726;-74
2022/12/13 11:32:38;;;;;;;13.80;9.90;;;;;;;-0.49;75.07;99896.73;102905;1329;37259;-73
2022/12/13 11:35:20;;;;;;;12.30;9.60;;;;;;;-0.49;74.76;99896.56;102927;1329;37307;-74
2022/12/13 11:38:01;;;;;;;10.60;9.10;;;;;;;-0.58;74.53;99890.73;102935;1331;37146;-73
2022/12/13 11:40:37;;;;;;;10.90;8.60;;;;;;;-0.76;73.67;99898.10;102942;1332;37137;-73
2022/12/13 11:43:25;;;;;;;13.40;10.10;;;;;;;-0.95;73.89;99899.30;102941;1332;37216;-74
2022/12/13 11:46:02;;;;;;;15.90;9.80;;;;;;;-1.07;74.37;99904.59;102793;1329;37145;-75
2022/12/13 11:48:43;;;;;;;13.20;10.00;;;;;;;-1.16;74.70;99904.59;102877;1329;37218;-76
2022/12/13 11:51:24;;;;;;;13.00;9.40;;;;;;;-1.28;74.52;99901.46;102822;1329;37208;-73
2022/12/13 11:54:03;;;;;;;13.90;9.90;;;;;;;-1.38;74.70;99908.95;102945;1331;36925;-75
2022/12/13 11:56:40;;;;;;;13.20;9.80;;;;;;;-1.42;75.08;99910.49;102906;1327;37210;-75
2022/12/13 11:59:25;;;;;;;16.90;10.20;;;;;;;-1.44;75.15;99913.23;102912;1331;38731;-73
2022/12/13 12:02:02;;;;;;;15.80;10.30;;;;;;;-1.46;75.53;99912.70;102937;1332;36707;-72
2022/12/13 12:04:40;;;;;;;12.10;9.50;;;;;;;-1.47;75.56;99914.08;102922;1327;37186;-71
2022/12/13 12:07:16;;;;;;;14.00;10.10;;;;;;;-1.54;75.32;99915.59;102918;1331;37397;-74
2022/12/13 12:09:54;;;;;;;15.10;9.60;;;;;;;-1.64;75.30;99926.15;102911;1330;37412;-74